Cscc Shanghai — C6XA5 — position and weather

sailwx.info

Track history (hours):
 
Tides and Currents Weather Stations Pressure Air Temp Water Temp Dewpoint Dewpoint Depression Visibility Wind Speed Wind Dir Waves Ship Positions

Cscc Shanghai

Last reported at 2018-Feb-21 02:23 UTC. Time now 2018-Feb-22 06:51 UTC.
Position N 38°38' E 015°19'.

Length 176 m; draft 8.4 m.

Type: Cargo ship. MMSI: 311003600.

Date/timePositionNaut miles runAvg speedWind from/ knotsBaromVisibWave heightAir tempDewpointWater temp
2018-Feb-21 02:23N 38°38' E 015°19'818.2
2018-Feb-21 01:58N 38°33' E 015°26'918.1
2018-Feb-21 01:29N 38°27' E 015°34'918.1
2018-Feb-21 01:00N 38°20' E 015°41'610.9
2018-Feb-21 00:29N 38°15' E 015°39'714.1
2018-Feb-21 00:00N 38°08' E 015°37'916.9
2018-Feb-20 23:30N 37°60' E 015°36'917.9
2018-Feb-20 23:00N 37°52' E 015°42'918.0
2018-Feb-20 22:30N 37°49' E 015°53'39315.6
2018-Feb-19 21:20N 37°34' E 024°09'1918.0
2018-Feb-19 20:16N 37°49' E 024°25'  
2018-Feb-15 16:40N 37°41' E 025°51'616.4
2018-Feb-15 16:20N 37°36' E 025°52'517.0
2018-Feb-15 16:00N 37°30' E 025°54'  
2018-Feb-11 22:22N 36°26' E 014°45'617.0
2018-Feb-11 22:00N 36°28' E 014°37'816.9
2018-Feb-11 21:30N 36°30' E 014°27'816.7
2018-Feb-11 21:00N 36°33' E 014°17'1016.7
2018-Feb-11 20:25N 36°35' E 014°05'  
Track history (hours):
 
Tides and Currents Weather Stations Pressure Air Temp Water Temp Dewpoint Dewpoint Depression Visibility Wind Speed Wind Dir Waves Ship Positions

Cscc Shanghai

Last reported at 2018-Feb-21 02:23 UTC. Time now 2018-Feb-22 06:51 UTC.
Position N 38°38' E 015°19'.

Length 176 m; draft 8.4 m.

Type: Cargo ship. MMSI: 311003600.

Date/timePositionNaut miles runAvg speedWind from/ knotsBaromVisibWave heightAir tempDewpointWater temp
2018-Feb-21 02:23N 38°38' E 015°19'818.2
2018-Feb-21 01:58N 38°33' E 015°26'918.1
2018-Feb-21 01:29N 38°27' E 015°34'918.1
2018-Feb-21 01:00N 38°20' E 015°41'610.9
2018-Feb-21 00:29N 38°15' E 015°39'714.1
2018-Feb-21 00:00N 38°08' E 015°37'916.9
2018-Feb-20 23:30N 37°60' E 015°36'917.9
2018-Feb-20 23:00N 37°52' E 015°42'918.0
2018-Feb-20 22:30N 37°49' E 015°53'39315.6
2018-Feb-19 21:20N 37°34' E 024°09'1918.0
2018-Feb-19 20:16N 37°49' E 024°25'  
2018-Feb-15 16:40N 37°41' E 025°51'616.4
2018-Feb-15 16:20N 37°36' E 025°52'517.0
2018-Feb-15 16:00N 37°30' E 025°54'  
2018-Feb-11 22:22N 36°26' E 014°45'617.0
2018-Feb-11 22:00N 36°28' E 014°37'816.9
2018-Feb-11 21:30N 36°30' E 014°27'816.7
2018-Feb-11 21:00N 36°33' E 014°17'1016.7
2018-Feb-11 20:25N 36°35' E 014°05'  

Dump ship's entire track history